Terminal Aerodrome Forecast
Issued by NWS

Home | Current Version | Previous Version | Text Only | Print | Product List | Glossary On
Versions: 1 2 3 4 5 6 7 8 9 10 11 12 13 14 15 16 17 18 19 20 21 22 23 24 25 26 27 28
000
FTUS45 KGJT 262336
TAFMTJ
TAF
KMTJ 262336Z 2700/2724 05004KT P6SM SCT090 SCT150
     FM270200 14005KT P6SM FEW200
     FM271100 13006KT P6SM BKN110
     FM271400 14006KT P6SM BKN060 WS020/22030KT
     FM271800 22015G23KT P6SM VCSH BKN060
     FM272300 23012KT P6SM -SHSN BKN050=

USA.gov is the U.S. government's official web portal to all federal, state and local government web resources and services.